ADDS METAR Data INFO
IDs: Format: Raw Decoded Include TAF

Data at: 2019 UTC 18 Jul 2018

KM25 182015Z AUTO 06006KT 10SM CLR 30/20 A3001 RMK AO2 PWINO
KM25 181955Z AUTO 06006KT 10SM CLR 30/20 A3001 RMK AO2 PWINO
KM25 181935Z AUTO 04007KT 010V070 10SM SCT045 31/20 A3002 RMK AO2 PWINO
KM25 181915Z AUTO 06006KT 10SM CLR 30/19 A3003 RMK AO2 PWINO
KM25 181855Z AUTO 06004KT 10SM CLR 30/20 A3003 RMK AO2 PWINO
KM25 181835Z AUTO 08004KT 10SM CLR 30/20 A3004 RMK AO2 PWINO
KM25 181815Z AUTO 08004KT 10SM CLR 30/19 A3004 RMK AO2 PWINO
KM25 181755Z AUTO 09004KT 10SM CLR 30/20 A3005 RMK AO2 PWINO
KM25 181735Z AUTO 09005KT 10SM CLR 30/20 A3005 RMK AO2 PWINO
KM25 181715Z AUTO 11004KT 10SM CLR 30/19 A3005 RMK AO2 PWINO
KM25 181655Z AUTO 06004KT 10SM CLR 30/19 A3005 RMK AO2 PWINO
KM25 181635Z AUTO 09005KT 10SM CLR 29/19 A3006 RMK AO2 PWINO
KM25 181615Z AUTO 08005KT 10SM CLR 28/18 A3006 RMK AO2 PWINO
KM25 181555Z AUTO 08005KT 10SM CLR 28/18 A3006 RMK AO2 PWINO
KM25 181535Z AUTO 10005KT 10SM CLR 27/18 A3006 RMK AO2 PWINO
KM25 181515Z AUTO 07006KT 10SM CLR 28/19 A3006 RMK AO2 PWINO
KM25 181455Z AUTO 10005KT 10SM CLR 27/20 A3006 RMK AO2 PWINO
KM25 181435Z AUTO 06004KT 10SM CLR 27/19 A3007 RMK AO2 PWINO
KM25 181415Z AUTO 08008KT 10SM CLR 26/19 A3007 RMK AO2 PWINO
KM25 181355Z AUTO 07006KT 10SM CLR 26/20 A3006 RMK AO2 PWINO
KM25 181335Z AUTO 07006KT 10SM CLR 26/20 A3006 RMK AO2 PWINO
KM25 181315Z AUTO 07005KT 10SM CLR 25/20 A3005 RMK AO2 PWINO
KM25 181255Z AUTO 06006KT 10SM CLR 23/20 A3005 RMK AO2 PWINO
KM25 181235Z AUTO 06006KT 10SM CLR 24/20 A3005 RMK AO2 PWINO
KM25 181215Z AUTO 05003KT 10SM CLR 23/20 A3005 RMK AO2 PWINO
KM25 181155Z AUTO 03005KT 10SM CLR 22/20 A3004 RMK AO2 PWINO
KM25 181135Z AUTO 03003KT 10SM CLR 22/20 A3004 RMK AO2 PWINO
KM25 181115Z AUTO 03003KT 10SM CLR 22/20 A3004 RMK AO2 PWINO
KM25 181055Z AUTO 00000KT 10SM CLR 22/21 A3003 RMK AO2 PWINO
KM25 181035Z AUTO 03003KT 10SM CLR 22/21 A3003 RMK AO2 PWINO
KM25 181015Z AUTO 03003KT 10SM CLR 22/21 A3003 RMK AO2 PWINO
KM25 180955Z AUTO 00000KT 10SM CLR 23/21 A3003 RMK AO2 PWINO
KM25 180935Z AUTO 01003KT 10SM CLR 23/21 A3003 RMK AO2 PWINO
KM25 180915Z AUTO 03003KT 10SM CLR 23/21 A3003 RMK AO2 PWINO
KM25 180855Z AUTO 02003KT 10SM CLR 23/22 A3002 RMK AO2 PWINO
KM25 180835Z AUTO 04003KT 10SM CLR 23/22 A3002 RMK AO2 PWINO
KM25 180815Z AUTO 00000KT 10SM CLR 23/22 A3002 RMK AO2 PWINO
KM25 180755Z AUTO 02003KT 10SM CLR 23/22 A3002 RMK AO2 PWINO
KM25 180735Z AUTO 00000KT 10SM CLR 23/22 A3003 RMK AO2 PWINO
KM25 180715Z AUTO 00000KT 10SM CLR 23/22 A3003 RMK AO2 PWINO
KM25 180655Z AUTO 00000KT 10SM CLR 24/22 A3003 RMK AO2 PWINO
KM25 180635Z AUTO 03003KT 10SM CLR 24/22 A3003 RMK AO2 PWINO
KM25 180615Z AUTO 00000KT 10SM CLR 24/22 A3003 RMK AO2 PWINO
KM25 180555Z AUTO 06003KT 10SM CLR 24/22 A3003 RMK AO2 PWINO
KM25 180535Z AUTO 00000KT 10SM CLR 25/22 A3003 RMK AO2 PWINO
KM25 180515Z AUTO 00000KT 10SM CLR 25/22 A3003 RMK AO2 PWINO
KM25 180455Z AUTO 00000KT 10SM CLR 25/22 A3004 RMK AO2 PWINO
KM25 180435Z AUTO 03003KT 10SM CLR 25/22 A3004 RMK AO2 PWINO
KM25 180415Z AUTO 00000KT 10SM CLR 26/22 A3004 RMK AO2 PWINO
KM25 180355Z AUTO 03003KT 10SM CLR 26/23 A3003 RMK AO2 PWINO
KM25 180335Z AUTO 05003KT 10SM CLR 26/23 A3003 RMK AO2 PWINO
KM25 180315Z AUTO 03003KT 10SM CLR 26/23 A3003 RMK AO2 PWINO
KM25 180255Z AUTO 02003KT 10SM CLR 26/23 A3002 RMK AO2 PWINO
KM25 180235Z AUTO 00000KT 10SM CLR 26/23 A3001 RMK AO2 PWINO
KM25 180215Z AUTO 00000KT 10SM CLR 27/23 A3001 RMK AO2 PWINO
KM25 180155Z AUTO 03003KT 10SM CLR 27/23 A3001 RMK AO2 PWINO
KM25 180135Z AUTO 02003KT 10SM CLR 27/23 A3001 RMK AO2 PWINO
KM25 180115Z AUTO 03003KT 10SM CLR 28/23 A3001 RMK AO2 PWINO
KM25 180055Z AUTO 02005KT 10SM CLR 28/22 A3000 RMK AO2 PWINO
KM25 180035Z AUTO 01004KT 10SM CLR 28/22 A3000 RMK AO2 PWINO
KM25 180015Z AUTO 02003KT 10SM CLR 29/22 A2999 RMK AO2 PWINO
KM25 172355Z AUTO 02006KT 10SM CLR 30/23 A2998 RMK AO2 PWINO
KM25 172335Z AUTO 00000KT 10SM CLR 31/23 A2998 RMK AO2 PWINO
KM25 172315Z AUTO 01003KT 10SM CLR 31/23 A2997 RMK AO2 PWINO
KM25 172255Z AUTO 01006KT 10SM CLR 31/23 A2997 RMK AO2 PWINO
KM25 172235Z AUTO 03003KT 10SM CLR 31/23 A2998 RMK AO2 PWINO
KM25 172215Z AUTO 02004KT 10SM CLR 31/23 A2998 RMK AO2 PWINO
KM25 172155Z AUTO 03007KT 10SM SCT041 SCT048 32/24 A2998 RMK AO2 PWINO
KM25 172135Z AUTO 02006KT 10SM BKN043 BKN050 32/24 A2998 RMK AO2 PWINO
KM25 172115Z AUTO 00000KT 10SM CLR 32/22 A2998 RMK AO2 PWINO
KM25 172055Z AUTO 02005KT 10SM SCT044 SCT049 32/23 A2999 RMK AO2 PWINO
KM25 172035Z AUTO 01003KT 10SM SCT044 SCT065 32/22 A3000 RMK AO2 PWINO
KM25 172015Z AUTO 03005KT 10SM CLR 33/22 A3001 RMK AO2 PWINO
KM25 171955Z AUTO 03005KT 10SM SCT043 32/22 A3001 RMK AO2 PWINO
KM25 171935Z AUTO 04006KT 10SM SCT043 32/22 A3001 RMK AO2 PWINO
KM25 171915Z AUTO 00000KT 10SM SCT041 SCT050 SCT075 32/22 A3001 RMK AO2 PWINO
KM25 171855Z AUTO 36004KT 10SM BKN041 BKN050 BKN075 32/22 A3002 RMK AO2 PWINO
KM25 171835Z AUTO 00000KT 10SM SCT041 32/22 A3002 RMK AO2 PWINO
KM25 171815Z AUTO 03006KT 10SM CLR 32/22 A3003 RMK AO2 PWINO
KM25 171755Z AUTO 00000KT 10SM CLR 31/22 A3002 RMK AO2 PWINO
KM25 171735Z AUTO 03005KT 10SM SCT035 31/23 A3002 RMK AO2 PWINO
KM25 171715Z AUTO 02004KT 10SM SCT033 31/22 A3003 RMK AO2 PWINO
KM25 171655Z AUTO 34004KT 10SM SCT029 31/24 A3003 RMK AO2 PWINO
KM25 171635Z AUTO 36003KT 10SM SCT027 31/24 A3003 RMK AO2 PWINO
KM25 171615Z AUTO 04003KT 10SM SCT020 30/24 A3004 RMK AO2 PWINO
KM25 171555Z AUTO 02004KT 10SM CLR 30/25 A3003 RMK AO2 PWINO
KM25 171535Z AUTO 00000KT 10SM CLR 30/25 A3003 RMK AO2 PWINO
KM25 171515Z AUTO 00000KT 10SM CLR 29/24 A3003 RMK AO2 PWINO
KM25 171455Z AUTO 00000KT 10SM CLR 28/25 A3003 RMK AO2 PWINO
KM25 171435Z AUTO 00000KT 10SM CLR 28/24 A3003 RMK AO2 PWINO
KM25 171415Z AUTO 00000KT 10SM CLR 27/23 A3004 RMK AO2 PWINO
KM25 171335Z AUTO 36003KT 10SM CLR 26/23 A3003 RMK AO2 PWINO
KM25 171315Z AUTO 00000KT 10SM CLR 26/23 A3003 RMK AO2 PWINO
KM25 171255Z AUTO 32003KT 10SM CLR 25/23 A3002 RMK AO2 PWINO
KM25 171235Z AUTO 31003KT 10SM CLR 25/23 A3002 RMK AO2 PWINO
KM25 171215Z AUTO 00000KT 10SM CLR 25/22 A3002 RMK AO2 PWINO
KM25 171155Z AUTO 31003KT 10SM CLR 24/22 A3002 RMK AO2 PWINO
KM25 171135Z AUTO 00000KT 10SM CLR 23/22 A3001 RMK AO2 PWINO
KM25 171115Z AUTO 29003KT 10SM CLR 23/22 A3000 RMK AO2 PWINO
KM25 171055Z AUTO 29003KT 10SM CLR 23/22 A2999 RMK AO2 PWINO
KM25 171035Z AUTO 00000KT 10SM CLR 23/22 A2999 RMK AO2 PWINO
KM25 171015Z AUTO 00000KT 10SM CLR 23/22 A2999 RMK AO2 PWINO
KM25 170955Z AUTO 00000KT 10SM CLR 23/23 A2999 RMK AO2 PWINO
KM25 170935Z AUTO 00000KT 10SM CLR 23/22 A2999 RMK AO2 PWINO
KM25 170915Z AUTO 00000KT 10SM SCT110 24/23 A2999 RMK AO2 PWINO
KM25 170855Z AUTO 00000KT 10SM BKN110 24/23 A2998 RMK AO2 PWINO
KM25 170835Z AUTO 00000KT 10SM BKN110 24/23 A2999 RMK AO2 PWINO